Time;durP1;ratioP1;P1;durP2;ratioP2;P2;SDS_P1;SDS_P2;PMS_P1;PMS_P2;Temp;Humidity;BMP_temperature;BMP_pressure;BME280_temperature;BME280_humidity;BME280_pressure;Samples;Min_cycle;Max_cycle;Signal;HPM_P1;HPM_P2
2023/05/11 00:00:51;;;;;;;;;;;;;;;19.62;36.88;99976.66;4446040;32;34290;-80
2023/05/11 00:03:18;;;;;;;;;;;;;;;18.79;38.02;99978.22;4452161;32;33892;-82
2023/05/11 00:05:46;;;;;;;;;;;;;;;19.07;38.06;99963.75;4452019;32;34446;-80
2023/05/11 00:08:15;;;;;;;;;;;;;;;19.13;38.05;99970.84;4439849;32;34300;-80
2023/05/11 00:10:46;;;;;;;;;;;;;;;20.26;35.82;99975.53;4451981;32;33867;-80
2023/05/11 00:13:13;;;;;;;;;;;;;;;20.22;36.19;99974.62;4447601;32;35055;-82
2023/05/11 00:15:40;;;;;;;;;;;;;;;20.30;36.13;99967.72;4451784;32;33275;-80
2023/05/11 00:18:08;;;;;;;;;;;;;;;19.88;36.98;99968.22;4451452;32;33452;-82
2023/05/11 00:20:35;;;;;;;;;;;;;;;19.50;37.46;99966.03;4450629;32;34216;-80
2023/05/11 00:23:02;;;;;;;;;;;;;;;19.73;36.99;99964.56;4450392;32;34143;-80
2023/05/11 00:25:29;;;;;;;;;;;;;;;19.97;36.28;99969.19;4443269;32;33646;-81
2023/05/11 00:27:56;;;;;;;;;;;;;;;20.08;36.27;99966.62;4446141;32;33966;-81
2023/05/11 00:30:24;;;;;;;;;;;;;;;20.57;35.54;99967.03;4433940;32;32997;-82
2023/05/11 00:32:51;;;;;;;;;;;;;;;20.10;36.03;99970.16;4448556;32;34886;-82
2023/05/11 00:35:18;;;;;;;;;;;;;;;19.69;36.99;99967.97;4449475;32;32796;-80
2023/05/11 00:37:46;;;;;;;;;;;;;;;19.62;36.92;99971.41;4438660;32;33406;-79
2023/05/11 00:40:13;;;;;;;;;;;;;;;19.58;37.17;99964.34;4449552;32;33993;-82
2023/05/11 00:42:41;;;;;;;;;;;;;;;19.35;37.76;99967.59;4452013;32;33985;-82
2023/05/11 00:45:08;;;;;;;;;;;;;;;19.78;37.05;99962.84;4448974;32;34194;-79
2023/05/11 00:47:36;;;;;;;;;;;;;;;20.00;36.83;99955.16;4448570;32;33337;-80
2023/05/11 00:50:04;;;;;;;;;;;;;;;20.15;36.43;99962.31;4435618;32;34801;-80
2023/05/11 00:52:31;;;;;;;;;;;;;;;19.72;37.57;99962.81;4438005;32;33553;-80
2023/05/11 00:54:59;;;;;;;;;;;;;;;20.00;37.13;99963.94;4437829;32;34905;-82
2023/05/11 00:57:26;;;;;;;;;;;;;;;19.84;37.57;99962.03;4451640;32;33215;-82
2023/05/11 00:59:53;;;;;;;;;;;;;;;20.01;37.24;99964.81;4452863;32;34880;-82
2023/05/11 01:02:20;;;;;;;;;;;;;;;19.91;37.38;99966.47;4453555;32;35063;-82
2023/05/11 01:04:50;;;;;;;;;;;;;;;20.23;36.80;99958.00;4436441;32;34304;-80
2023/05/11 01:07:38;;;;;;;;;;;;;;;20.00;37.08;99963.94;4433212;32;33078;-82
2023/05/11 01:10:26;;;;;;;;;;;;;;;19.86;37.46;99959.41;4437835;32;34026;-80
2023/05/11 01:12:53;;;;;;;;;;;;;;;19.67;37.73;99953.94;4442890;32;34788;-81
2023/05/11 01:15:27;;;;;;;;;;;;;;;20.12;37.00;99952.63;4450778;32;33991;-80
2023/05/11 01:18:05;;;;;;;;;;;;;;;20.33;36.65;99961.56;4439869;32;33444;-81
2023/05/11 01:20:33;;;;;;;;;;;;;;;19.99;37.35;99950.75;4446680;32;34901;-79
2023/05/11 01:23:06;;;;;;;;;;;;;;;20.34;36.61;99947.53;4448461;32;34074;-82
2023/05/11 01:25:53;;;;;;;;;;;;;;;19.40;38.42;99952.78;4438866;32;34422;-79
2023/05/11 01:28:39;;;;;;;;;;;;;;;20.56;36.72;99943.31;4454041;32;32806;-81
2023/05/11 01:31:08;;;;;;;;;;;;;;;20.25;37.01;99950.13;4444484;32;33954;-80
2023/05/11 01:33:36;;;;;;;;;;;;;;;20.07;37.44;99953.47;4448947;32;33856;-79
2023/05/11 01:36:08;;;;;;;;;;;;;;;20.06;37.54;99947.31;4450266;32;34329;-81
2023/05/11 01:38:36;;;;;;;;;;;;;;;20.31;37.35;99952.78;4435072;32;34064;-81
2023/05/11 01:41:06;;;;;;;;;;;;;;;19.41;38.59;99948.41;4436363;32;34156;-80
2023/05/11 01:43:33;;;;;;;;;;;;;;;18.80;40.56;99951.16;4433624;32;34769;-82
2023/05/11 01:46:01;;;;;;;;;;;;;;;20.09;38.10;99955.25;4438127;32;34844;-80
2023/05/11 01:48:29;;;;;;;;;;;;;;;20.02;38.29;99950.81;4426380;32;33569;-79
2023/05/11 01:50:58;;;;;;;;;;;;;;;20.60;36.97;99938.09;4429371;32;34170;-81
2023/05/11 01:53:26;;;;;;;;;;;;;;;20.29;37.81;99950.16;4432901;32;34020;-79
2023/05/11 01:55:56;;;;;;;;;;;;;;;20.00;38.22;99947.28;4440268;32;33731;-80
2023/05/11 01:58:23;;;;;;;;;;;;;;;20.29;37.95;99951.91;4427733;32;33461;-82
2023/05/11 02:00:50;;;;;;;;;;;;;;;20.54;37.78;99942.44;4442947;32;33687;-81
2023/05/11 02:03:18;;;;;;;;;;;;;;;20.85;37.42;99942.66;4447567;32;34997;-82
2023/05/11 02:05:45;;;;;;;;;;;;;;;20.21;38.58;99946.59;4442948;32;33689;-80
2023/05/11 02:08:12;;;;;;;;;;;;;;;20.15;38.92;99946.53;4439317;32;33214;-80
2023/05/11 02:10:40;;;;;;;;;;;;;;;20.34;38.60;99948.44;4429762;32;33757;-80
2023/05/11 02:13:08;;;;;;;;;;;;;;;20.55;38.13;99933.66;4433605;32;33853;-80
2023/05/11 02:15:36;;;;;;;;;;;;;;;20.47;38.26;99938.88;4433529;32;33589;-82
2023/05/11 02:18:05;;;;;;;;;;;;;;;20.39;38.66;99930.03;4417285;32;33937;-81
2023/05/11 02:20:33;;;;;;;;;;;;;;;20.25;38.96;99936.97;4431234;32;34352;-82
2023/05/11 02:23:01;;;;;;;;;;;;;;;20.54;38.15;99937.16;4416957;32;33967;-80
2023/05/11 02:25:28;;;;;;;;;;;;;;;20.30;39.09;99936.12;4439543;32;34834;-80
2023/05/11 02:27:55;;;;;;;;;;;;;;;20.12;40.05;99934.22;4442202;32;33285;-81
2023/05/11 02:30:24;;;;;;;;;;;;;;;20.14;40.58;99935.13;4450161;32;34638;-82
2023/05/11 02:32:55;;;;;;;;;;;;;;;20.17;40.21;99932.53;4437495;32;34023;-80
2023/05/11 02:35:23;;;;;;;;;;;;;;;20.03;40.45;99936.81;4436940;32;34382;-84
2023/05/11 02:37:53;;;;;;;;;;;;;;;20.00;39.81;99931.50;4428750;32;33526;-83
2023/05/11 02:40:23;;;;;;;;;;;;;;;20.08;39.44;99929.81;4428243;32;34106;-80
2023/05/11 02:42:52;;;;;;;;;;;;;;;19.31;40.90;99926.41;4436257;32;34104;-83
2023/05/11 02:45:19;;;;;;;;;;;;;;;19.95;39.77;99927.94;4439150;32;33583;-80
2023/05/11 02:47:51;;;;;;;;;;;;;;;20.48;38.85;99916.97;4447885;32;34146;-80
2023/05/11 02:50:20;;;;;;;;;;;;;;;19.28;41.14;99918.50;4431633;32;33258;-83
2023/05/11 02:52:47;;;;;;;;;;;;;;;19.69;40.13;99918.06;4428365;32;33575;-82
2023/05/11 02:55:16;;;;;;;;;;;;;;;19.76;40.35;99922.53;4446198;32;34749;-81
2023/05/11 02:57:43;;;;;;;;;;;;;;;19.41;41.25;99920.41;4453049;32;33157;-80
2023/05/11 03:00:11;;;;;;;;;;;;;;;18.54;42.88;99921.88;4438137;32;34283;-83
2023/05/11 03:02:39;;;;;;;;;;;;;;;18.42;44.44;99915.59;4452777;32;33963;-83
2023/05/11 03:05:06;;;;;;;;;;;;;;;18.99;42.54;99916.41;4453152;32;34473;-80
2023/05/11 03:07:34;;;;;;;;;;;;;;;19.00;42.48;99912.03;4444025;32;33653;-81
2023/05/11 03:10:01;;;;;;;;;;;;;;;18.84;42.63;99911.84;4447319;32;34188;-80
2023/05/11 03:12:32;;;;;;;;;;;;;;;18.93;42.72;99918.97;4435600;32;33420;-81
2023/05/11 03:15:01;;;;;;;;;;;;;;;19.07;41.99;99923.50;4430245;32;34143;-81
2023/05/11 03:17:28;;;;;;;;;;;;;;;19.18;42.06;99917.53;4452769;32;34012;-82
2023/05/11 03:19:57;;;;;;;;;;;;;;;18.98;42.27;99917.25;4432315;32;33905;-83
2023/05/11 03:22:24;;;;;;;;;;;;;;;18.18;44.36;99933.59;4422133;32;34239;-82
2023/05/11 03:24:51;;;;;;;;;;;;;;;17.53;46.88;99926.31;4438680;32;35165;-80
2023/05/11 03:27:19;;;;;;;;;;;;;;;18.61;44.03;99924.63;4453206;32;33555;-82
2023/05/11 03:29:47;;;;;;;;;;;;;;;18.44;44.41;99931.34;4431228;32;34124;-81
2023/05/11 03:32:14;;;;;;;;;;;;;;;17.95;45.97;99930.59;4435278;32;33632;-83
2023/05/11 03:34:42;;;;;;;;;;;;;;;18.45;44.72;99935.75;4449173;32;33670;-80
2023/05/11 03:37:11;;;;;;;;;;;;;;;19.09;42.99;99929.66;4449259;32;32993;-83
2023/05/11 03:39:40;;;;;;;;;;;;;;;18.79;43.50;99930.97;4434067;32;34328;-81
2023/05/11 03:42:07;;;;;;;;;;;;;;;19.00;42.90;99926.03;4425208;32;33439;-82
2023/05/11 03:44:35;;;;;;;;;;;;;;;17.81;45.84;99944.31;4435917;32;33864;-81
2023/05/11 03:47:03;;;;;;;;;;;;;;;17.94;45.63;99931.44;4438653;32;33439;-81
2023/05/11 03:49:31;;;;;;;;;;;;;;;17.77;46.29;99932.00;4436309;32;34249;-80
2023/05/11 03:51:58;;;;;;;;;;;;;;;17.22;47.65;99937.06;4447986;32;34721;-83
2023/05/11 03:54:25;;;;;;;;;;;;;;;17.85;45.94;99935.66;4449732;32;34924;-81
2023/05/11 03:56:54;;;;;;;;;;;;;;;17.21;47.85;99939.66;4451361;32;32708;-82
2023/05/11 03:59:21;;;;;;;;;;;;;;;18.14;45.32;99935.28;4447227;32;33963;-80
2023/05/11 04:01:52;;;;;;;;;;;;;;;17.55;46.86;99940.31;4448438;32;33485;-82
2023/05/11 04:04:20;;;;;;;;;;;;;;;16.61;50.22;99936.62;4438383;32;34272;-80
2023/05/11 04:06:47;;;;;;;;;;;;;;;17.51;48.07;99938.50;4421907;32;33946;-81
2023/05/11 04:09:15;;;;;;;;;;;;;;;15.29;54.83;99944.59;4445335;32;34983;-82
2023/05/11 04:11:43;;;;;;;;;;;;;;;15.69;53.81;99944.81;4452014;32;34182;-80
2023/05/11 04:14:10;;;;;;;;;;;;;;;17.23;49.47;99937.94;4449260;32;34967;-82
2023/05/11 04:16:37;;;;;;;6.12;3.00;;;;;;;17.56;48.42;99939.44;4448432;32;33379;-80
2023/05/11 04:19:06;;;;;;;7.12;2.50;;;;;;;18.06;47.11;99939.53;4451487;32;33517;-83
2023/05/11 04:21:34;;;;;;;6.20;3.12;;;;;;;17.90;47.65;99947.97;4447234;32;34732;-80
2023/05/11 04:24:03;;;;;;;6.10;2.67;;;;;;;18.36;46.48;99951.34;4449887;32;33408;-80
2023/05/11 04:26:30;;;;;;;5.80;2.62;;;;;;;18.41;46.17;99947.94;4445414;32;32365;-80
2023/05/11 04:28:58;;;;;;;5.37;2.55;;;;;;;18.65;44.92;99947.41;4446614;32;33698;-81
2023/05/11 04:31:25;;;;;;;5.85;2.90;;;;;;;19.16;43.67;99949.84;4428680;32;34571;-80
2023/05/11 04:33:53;;;;;;;4.75;2.42;;;;;;;18.26;45.71;99953.81;4416671;32;32385;-82
2023/05/11 04:36:21;;;;;;;;;;;;;;;19.13;43.32;99950.72;4448376;32;34098;-83
2023/05/11 04:38:48;;;;;;;;;;;;;;;18.82;43.92;99954.69;4439288;32;34842;-80
2023/05/11 04:41:16;;;;;;;;;;;;;;;19.01;43.36;99946.19;4445795;32;35007;-83
2023/05/11 04:43:44;;;;;;;;;;;;;;;19.18;42.90;99958.62;4450137;32;34200;-82
2023/05/11 04:46:12;;;;;;;;;;;;;;;19.26;42.14;99946.50;4446329;32;34045;-80
2023/05/11 04:48:40;;;;;;;;;;;;;;;19.65;41.18;99955.69;4450324;32;33990;-83
2023/05/11 04:51:07;;;;;;;;;;;;;;;19.63;41.16;99958.28;4451565;32;34687;-83
2023/05/11 04:53:36;;;;;;;;;;;;;;;19.64;40.86;99959.16;4444296;32;34220;-81
2023/05/11 04:56:04;;;;;;;;;;;;;;;18.99;41.07;99958.41;4452347;32;33630;-82
2023/05/11 04:58:31;;;;;;;;;;;;;;;19.33;40.62;99957.94;4442316;32;34032;-82
2023/05/11 05:00:59;;;;;;;;;;;;;;;18.83;41.65;99966.94;4449058;32;35458;-84
2023/05/11 05:03:27;;;;;;;;;;;;;;;18.95;41.42;99956.63;4440516;32;34237;-82
2023/05/11 05:05:54;;;;;;;;;;;;;;;18.78;41.48;99969.47;4447782;32;33403;-82
2023/05/11 05:08:21;;;;;;;;;;;;;;;18.97;41.71;99964.53;4453355;32;34419;-82
2023/05/11 05:10:49;;;;;;;;;;;;;;;18.77;41.80;99961.56;4438076;32;34035;-82
2023/05/11 05:13:16;;;;;;;;;;;;;;;19.20;41.13;99967.41;4450151;32;34307;-80
2023/05/11 05:15:43;;;;;;;;;;;;;;;19.57;40.90;99970.50;4437652;32;33605;-81
2023/05/11 05:18:11;;;;;;;;;;;;;;;19.12;41.49;99963.81;4451802;32;34962;-82
2023/05/11 05:20:38;;;;;;;;;;;;;;;18.86;42.05;99966.97;4450326;32;34063;-83
2023/05/11 05:23:05;;;;;;;;;;;;;;;19.67;39.93;99961.81;4441184;32;33746;-81
2023/05/11 05:25:33;;;;;;;;;;;;;;;19.01;41.37;99967.19;4440915;32;33793;-81
2023/05/11 05:28:00;;;;;;;;;;;;;;;18.40;42.20;99971.50;4441207;32;33885;-84
2023/05/11 05:30:28;;;;;;;;;;;;;;;18.44;42.40;99978.56;4452282;32;34204;-85
2023/05/11 05:32:55;;;;;;;;;;;;;;;18.71;41.46;99972.84;4444032;32;33507;-83
2023/05/11 05:35:24;;;;;;;;;;;;;;;19.04;40.49;99972.50;4450993;32;33523;-83
2023/05/11 05:37:52;;;;;;;;;;;;;;;18.96;40.73;99973.25;4447369;32;34709;-82
2023/05/11 05:40:20;;;;;;;;;;;;;;;17.86;43.38;99974.09;4443562;32;34175;-83
2023/05/11 05:42:48;;;;;;;;;;;;;;;17.62;43.53;99984.13;4449947;32;34815;-84
2023/05/11 05:45:16;;;;;;;;;;;;;;;18.44;41.94;99978.56;4449027;32;33413;-83
2023/05/11 05:47:43;;;;;;;;;;;;;;;17.56;43.19;99976.13;4436885;32;34136;-85
2023/05/11 05:50:11;;;;;;;;;;;;;;;17.64;43.47;99985.91;4431231;32;33900;-83
2023/05/11 05:52:39;;;;;;;;;;;;;;;18.54;41.92;99985.72;4447948;32;35453;-84
2023/05/11 05:55:07;;;;;;;;;;;;;;;19.53;39.65;99984.44;4446515;32;33508;-83
2023/05/11 05:57:34;;;;;;;;;;;;;;;19.95;38.04;99981.44;4444079;32;34535;-83
2023/05/11 06:00:02;;;;;;;;;;;;;;;18.16;40.97;99988.63;4448074;32;34204;-83
2023/05/11 06:02:38;;;;;;;;;;;;;;;18.91;39.98;99991.56;4442773;32;33908;-83
2023/05/11 06:05:07;;;;;;;;;;;;;;;18.70;39.84;99986.84;4419678;32;34079;-85
2023/05/11 06:07:34;;;;;;;;;;;;;;;18.86;39.20;99982.72;4442810;32;33975;-84
2023/05/11 06:10:01;;;;;;;;;;;;;;;18.00;41.61;99986.56;4444781;32;33613;-83
2023/05/11 06:12:30;;;;;;;;;;;;;;;18.61;40.12;99992.81;4443026;32;33654;-83
2023/05/11 06:14:57;;;;;;;;;;;;;;;18.90;39.46;99989.78;4434317;32;33546;-83
2023/05/11 06:17:27;;;;;;;;;;;;;;;18.15;40.83;99989.47;4444862;32;33947;-83
2023/05/11 06:19:55;;;;;;;;;;;;;;;18.73;40.23;99991.25;4444761;32;34239;-84
2023/05/11 06:22:24;;;;;;;;;;;;;;;19.49;38.57;99985.25;4446750;32;33793;-85
2023/05/11 06:24:51;;;;;;;;;;;;;;;19.89;37.93;99988.34;4446897;32;32734;-84
2023/05/11 06:27:19;;;;;;;;;;;;;;;19.81;38.08;99983.03;4430485;32;31969;-83
2023/05/11 06:29:47;;;;;;;;;;;;;;;19.80;38.16;99987.41;4447589;32;34677;-82
2023/05/11 06:32:15;;;;;;;;;;;;;;;19.84;38.60;99993.59;4445577;32;33872;-85
2023/05/11 06:34:43;;;;;;;;;;;;;;;19.26;39.62;99983.25;4446900;32;33208;-82
2023/05/11 06:37:10;;;;;;;;;;;;;;;19.36;39.61;99979.00;4445132;32;34216;-83
2023/05/11 06:39:37;;;;;;;;;;;;;;;19.51;39.17;99980.91;4443973;32;34057;-85
2023/05/11 06:42:06;;;;;;;;;;;;;;;20.06;38.32;99989.41;4446888;32;34585;-82
2023/05/11 06:44:34;;;;;;;;;;;;;;;19.37;39.57;99983.38;4441340;32;32947;-81
2023/05/11 06:47:02;;;;;;;;;;;;;;;20.46;37.43;99979.22;4440913;32;35017;-83
2023/05/11 06:49:29;;;;;;;;;;;;;;;20.74;36.83;99979.44;4444049;32;34454;-81
2023/05/11 06:51:58;;;;;;;;;;;;;;;20.54;37.92;99982.78;4404186;32;787575;-83
2023/05/11 06:54:25;;;;;;;;;;;;;;;20.88;36.93;99977.78;4441143;32;34039;-84
2023/05/11 06:56:53;;;;;;;;;;;;;;;20.23;38.36;99982.53;4445194;32;35003;-83
2023/05/11 06:59:20;;;;;;;;;;;;;;;21.53;35.68;99975.44;4426808;32;32763;-84
2023/05/11 07:01:47;;;;;;;;;;;;;;;21.16;36.81;99972.63;4447522;32;33982;-85
2023/05/11 07:04:15;;;;;;;;;;;;;;;20.89;37.03;99969.00;4446086;32;33565;-84
2023/05/11 07:06:42;;;;;;;;;;;;;;;21.96;34.69;99972.88;4431452;32;33616;-83
2023/05/11 07:09:09;;;;;;;;;;;;;;;22.19;34.60;99971.16;4449953;32;34726;-83
2023/05/11 07:11:37;;;;;;;;;;;;;;;21.48;36.12;99971.91;4442922;32;33881;-82
2023/05/11 07:14:04;;;;;;;;;;;;;;;21.33;35.81;99965.69;4446703;32;32865;-83
2023/05/11 07:16:31;;;;;;;;;;;;;;;21.54;36.01;99969.31;4428392;32;34833;-83
2023/05/11 07:18:59;;;;;;;;;;;;;;;20.88;36.60;99972.50;4445963;32;33345;-82
2023/05/11 07:21:27;;;;;;;;;;;;;;;21.71;34.98;99962.31;4424390;32;33199;-82
2023/05/11 07:23:54;;;;;;;;;;;;;;;22.32;34.88;99960.63;4431735;32;33865;-83
2023/05/11 07:26:21;;;;;;;;;;;;;;;21.64;35.90;99960.53;4444228;32;33759;-86
2023/05/11 07:28:49;;;;;;;;;;;;;;;22.85;33.00;99959.66;4445596;32;34225;-85
2023/05/11 07:31:16;;;;;;;;;;;;;;;23.22;32.24;99963.94;4430077;32;32876;-86
2023/05/11 07:33:44;;;;;;;;;;;;;;;23.41;30.59;99965.66;4442828;32;34276;-84
2023/05/11 07:36:11;;;;;;;;;;;;;;;25.03;29.23;99953.75;4444633;32;34143;-84
2023/05/11 07:38:38;;;;;;;;;;;;;;;24.79;28.43;99960.22;4446571;32;33601;-88
2023/05/11 07:41:06;;;;;;;;;;;;;;;25.43;28.45;99954.16;4428977;32;34392;-87
2023/05/11 07:43:36;;;;;;;;;;;;;;;26.28;27.33;99955.53;4447674;32;32564;-84
2023/05/11 07:46:03;;;;;;;;;;;;;;;26.85;26.43;99942.13;4443574;32;34267;-84
2023/05/11 07:48:30;;;;;;;;;;;;;;;26.24;26.42;99953.84;4443705;32;34878;-86
2023/05/11 07:50:58;;;;;;;;;;;;;;;27.22;25.75;99949.34;4433309;32;32732;-87
2023/05/11 07:53:25;;;;;;;;;;;;;;;27.39;25.94;99948.13;4447319;32;33102;-88
2023/05/11 07:55:53;;;;;;;;;;;;;;;27.81;25.03;99946.25;4433222;32;34267;-86
2023/05/11 07:58:20;;;;;;;;;;;;;;;28.17;24.66;99956.09;4435378;32;33719;-85
2023/05/11 08:00:47;;;;;;;;;;;;;;;27.88;24.84;99947.03;4432421;32;34003;-87
2023/05/11 08:03:15;;;;;;;;;;;;;;;27.45;25.13;99951.53;4415723;32;31521;-87
2023/05/11 08:05:43;;;;;;;;;;;;;;;27.38;25.01;99946.38;4445337;32;35144;-86
2023/05/11 08:08:10;;;;;;;;;;;;;;;27.80;24.30;99938.34;4450456;32;33894;-86
2023/05/11 08:10:38;;;;;;;;;;;;;;;28.73;23.22;99943.09;4446002;32;34719;-88
2023/05/11 08:13:05;;;;;;;;;;;;;;;29.02;23.44;99936.06;4433509;32;32076;-87
2023/05/11 08:15:32;;;;;;;;;;;;;;;28.74;23.09;99936.88;4431870;32;34435;-86
2023/05/11 08:18:01;;;;;;;;;;;;;;;29.05;22.75;99935.97;4445457;32;33447;-85
2023/05/11 08:20:29;;;;;;;;;;;;;;;29.04;23.76;99928.91;4448086;32;33988;-87
2023/05/11 08:22:56;;;;;;;;;;;;;;;30.28;22.39;99929.47;4445804;32;33301;-86
2023/05/11 08:25:24;;;;;;;;;;;;;;;28.91;24.17;99933.69;4444274;32;33773;-86
2023/05/11 08:27:51;;;;;;;;;;;;;;;28.70;24.16;99929.84;4446188;32;34060;-88
2023/05/11 08:30:18;;;;;;;6.15;1.60;;;;;;;29.52;22.84;99922.16;4447972;32;34748;-86
2023/05/11 08:32:46;;;;;;;5.25;2.03;;;;;;;29.37;22.60;99934.19;4434952;32;32731;-86
2023/05/11 08:35:25;;;;;;;;;;;;;;;27.59;24.29;99924.63;4431363;32;32302;-86
2023/05/11 08:37:52;;;;;;;;;;;;;;;27.71;24.48;99917.25;4446863;32;34074;-86
2023/05/11 08:40:20;;;;;;;;;;;;;;;26.67;25.11;99911.44;4413028;32;32854;-88
2023/05/11 08:42:47;;;;;;;;;;;;;;;26.56;26.10;99907.22;4443172;32;33501;-89
2023/05/11 08:45:14;;;;;;;;;;;;;;;26.63;25.78;99914.22;4427417;32;34164;-84
2023/05/11 08:47:42;;;;;;;;;;;;;;;26.15;25.97;99914.16;4430904;32;34124;-88
2023/05/11 08:50:09;;;;;;;;;;;;;;;25.29;27.12;99914.56;4425657;32;35373;-87
2023/05/11 08:52:37;;;;;;;;;;;;;;;26.21;25.69;99911.41;4427948;32;33230;-88
2023/05/11 08:55:04;;;;;;;;;;;;;;;25.72;26.35;99907.75;4428573;32;35332;-84
2023/05/11 08:57:31;;;;;;;;;;;;;;;26.29;26.05;99899.75;4439439;32;33767;-88
2023/05/11 08:59:59;;;;;;;;;;;;;;;26.47;25.93;99898.53;4432405;32;34552;-84
2023/05/11 09:02:28;;;;;;;;;;;;;;;26.87;26.07;99892.47;4423932;32;32641;-84
2023/05/11 09:04:55;;;;;;;;;;;;;;;26.02;26.95;99901.13;4448697;32;34199;-83
2023/05/11 09:07:23;;;;;;;;;;;;;;;26.25;26.99;99897.16;4428981;32;33781;-83
2023/05/11 09:09:50;;;;;;;;;;;;;;;26.94;26.01;99892.34;4443657;32;34279;-83
2023/05/11 09:12:17;;;;;;;;;;;;;;;26.52;26.67;99894.91;4446835;32;34149;-83
2023/05/11 09:14:46;;;;;;;;;;;;;;;26.21;26.03;99895.47;4447115;32;32892;-83
2023/05/11 09:17:13;;;;;;;;;;;;;;;26.48;26.40;99889.66;4415341;32;33321;-83
2023/05/11 09:19:55;;;;;;;;;;;;;;;26.21;26.51;99887.50;4428488;32;34807;-84
2023/05/11 09:22:42;;;;;;;;;;;;;;;27.68;24.90;99898.69;4449330;32;34967;-84
2023/05/11 09:25:10;;;;;;;;;;;;;;;27.10;25.78;99877.81;4431799;32;34764;-84
2023/05/11 09:27:41;;;;;;;;;;;;;;;27.07;25.54;99877.88;4443761;32;33800;-84
2023/05/11 09:30:10;;;;;;;;;;;;;;;26.41;26.09;99892.47;4429694;32;34248;-85
2023/05/11 09:32:57;;;;;;;;;;;;;;;26.28;25.77;99875.88;4432140;32;33286;-84
2023/05/11 09:35:25;;;;;;;;;;;;;;;26.68;25.92;99869.84;4452647;32;33806;-83
2023/05/11 09:37:56;;;;;;;;;;;;;;;26.43;26.54;99875.59;4443842;32;34137;-83
2023/05/11 09:40:23;;;;;;;;;;;;;;;26.65;26.31;99867.22;4448254;32;33940;-85
2023/05/11 09:43:00;;;;;;;;;;;;;;;25.40;27.38;99863.16;4442164;32;33023;-85
2023/05/11 09:45:56;;;;;;;;;;;;;;;26.35;26.37;99850.97;4446185;32;34426;-83
2023/05/11 09:48:28;;;;;;;;;;;;;;;25.93;26.78;99874.72;4431174;32;33904;-83
2023/05/11 09:51:00;;;;;;;;;;;;;;;26.12;25.72;99863.81;4449138;32;33139;-85
2023/05/11 09:53:38;;;;;;;;;;;;;;;26.19;25.91;99865.41;4432118;32;34142;-84
2023/05/11 09:56:05;;;;;;;;;;;;;;;25.65;25.66;99864.53;4449232;32;33022;-82
2023/05/11 09:58:53;;;;;;;;;;;;;;;25.95;23.96;99864.97;4444456;32;35054;-84
2023/05/11 10:01:31;;;;;;;;;;;;;;;26.61;23.82;99862.88;4453937;32;34708;-83
2023/05/11 10:03:59;;;;;;;;;;;;;;;26.27;23.75;99863.53;4450593;32;34277;-83
2023/05/11 10:06:48;;;;;;;;;;;;;;;25.67;25.14;99854.78;4432510;32;35323;-83
2023/05/11 10:09:16;;;;;;;;;;;;;;;26.19;23.92;99854.81;4441551;32;34656;-84
2023/05/11 10:11:44;;;;;;;;;;;;;;;25.76;22.83;99844.91;4415905;32;34196;-84
2023/05/11 10:14:12;;;;;;;;;;;;;;;25.40;23.93;99836.62;4428709;32;33146;-84
2023/05/11 10:16:40;;;;;;;;;;;;;;;25.62;23.92;99838.06;4432035;32;33709;-85
2023/05/11 10:19:07;;;;;;;;;;;;;;;25.10;25.12;99839.69;4428871;32;33886;-83
2023/05/11 10:21:36;;;;;;;;;;;;;;;25.65;24.31;99840.66;4443331;32;33898;-84
2023/05/11 10:24:04;;;;;;;;;;;;;;;26.11;24.85;99835.50;4431263;32;33069;-83
2023/05/11 10:26:31;;;;;;;;;;;;;;;26.20;24.88;99843.28;4427050;32;32185;-84
2023/05/11 10:28:59;;;;;;;;;;;;;;;26.04;23.46;99835.59;4416751;32;33778;-85
2023/05/11 10:31:27;;;;;;;;;;;;;;;25.18;24.29;99842.22;4442712;32;34724;-84
2023/05/11 10:33:56;;;;;;;;;;;;;;;24.93;24.76;99834.59;4446763;32;33273;-83
2023/05/11 10:36:24;;;;;;;;;;;;;;;25.59;24.33;99838.09;4450009;32;34494;-84
2023/05/11 10:38:51;;;;;;;;;;;;;;;25.70;24.13;99830.84;4429079;32;34097;-83
2023/05/11 10:41:29;;;;;;;;;;;;;;;26.49;22.73;99832.09;4446921;32;34062;-83
2023/05/11 10:44:18;;;;;;;;;;;;;;;27.16;22.71;99829.81;4439169;32;33281;-82
2023/05/11 10:47:00;;;;;;;;;;;;;;;26.92;23.91;99835.69;4443588;32;34420;-85
2023/05/11 10:49:28;;;;;;;;;;;;;;;26.53;24.63;99830.25;4447880;32;33996;-87
2023/05/11 10:52:15;;;;;;;;;;;;;;;25.08;25.57;99828.22;4440697;32;34295;-86
2023/05/11 10:54:58;;;;;;;;;;;;;;;25.68;25.53;99821.16;4419808;32;33982;-84
2023/05/11 10:57:36;;;;;;;;;;;;;;;26.53;24.38;99814.31;4435386;32;34863;-85
2023/05/11 11:00:29;;;;;;;;;;;;;;;26.99;23.50;99810.72;4418316;32;34045;-86
2023/05/11 11:02:57;;;;;;;;;;;;;;;27.05;23.39;99815.88;4433866;32;34602;-87
2023/05/11 11:05:32;;;;;;;;;;;;;;;27.18;23.50;99822.69;4403187;32;31881;-86
2023/05/11 11:08:02;;;;;;;;;;;;;;;27.68;22.63;99808.22;4406747;32;34506;-87
2023/05/11 11:10:30;;;;;;;;;;;;;;;28.27;22.49;99805.78;4435769;32;34146;-88
2023/05/11 11:13:01;;;;;;;;;;;;;;;27.83;22.67;99818.47;4422897;32;33452;-83
2023/05/11 11:15:47;;;;;;;;;;;;;;;27.11;22.91;99813.09;4408976;32;32508;-87
2023/05/11 11:18:33;;;;;;;;;;;;;;;27.03;23.21;99812.41;4427869;32;33848;-85
2023/05/11 11:21:00;;;;;;;;;;;;;;;26.74;23.18;99805.94;4431413;32;34932;-87
2023/05/11 11:23:40;;;;;;;;;;;;;;;26.40;22.97;99806.59;4430447;32;34681;-86
2023/05/11 11:26:08;;;;;;;;;;;;;;;25.88;23.42;99808.44;4431368;32;33714;-86
2023/05/11 11:29:00;;;;;;;;;;;;;;;25.87;23.40;99801.38;4436301;32;34769;-88
2023/05/11 11:31:29;;;;;;;;;;;;;;;26.85;22.36;99798.59;4434732;32;34263;-86
2023/05/11 11:34:18;;;;;;;;;;;;;;;28.06;22.33;99795.72;4437479;32;33824;-87
2023/05/11 11:36:55;;;;;;;;;;;;;;;27.38;22.44;99800.97;4437974;32;33290;-84
2023/05/11 11:39:25;;;;;;;;;;;;;;;26.48;23.26;99788.75;4430970;32;33754;-87
2023/05/11 11:42:02;;;;;;;;;;;;;;;26.46;23.46;99798.53;4434983;32;33138;-86
2023/05/11 11:44:30;;;;;;;;;;;;;;;26.93;23.32;99793.13;4432849;32;33033;-85
2023/05/11 11:47:13;;;;;;;;;;;;;;;27.80;23.09;99789.28;4418927;32;33126;-85
2023/05/11 11:49:41;;;;;;;;;;;;;;;27.94;23.04;99792.47;4408598;32;33528;-83
2023/05/11 11:52:35;;;;;;;;;;;;;;;28.41;21.41;99790.31;4415696;32;34357;-83
2023/05/11 11:55:02;;;;;;;;;;;;;;;28.71;21.23;99790.34;4432951;32;34960;-85
2023/05/11 11:57:33;;;;;;;;;;;;;;;27.28;22.31;99802.09;4437617;32;33420;-81
2023/05/11 12:00:04;;;;;;;;;;;;;;;27.45;22.11;99794.59;4435156;32;33905;-83
2023/05/11 12:02:41;;;;;;;;;;;;;;;27.45;22.28;99796.38;4417161;32;34757;-83
2023/05/11 12:05:09;;;;;;;;;;;;;;;28.21;21.45;99779.31;4419580;32;34530;-81
2023/05/11 12:07:36;;;;;;;;;;;;;;;28.42;21.04;99778.72;4432693;32;33010;-82
2023/05/11 12:10:04;;;;;;;;;;;;;;;27.97;21.37;99780.84;4428459;32;34260;-81
2023/05/11 12:12:31;;;;;;;;;;;;;;;27.54;22.05;99788.16;4435150;32;34758;-81
2023/05/11 12:15:01;;;;;;;;;;;;;;;27.92;21.42;99767.69;4415295;32;33909;-80
2023/05/11 12:17:28;;;;;;;;;;;;;;;27.87;21.41;99768.69;4432989;32;33180;-82
2023/05/11 12:20:13;;;;;;;;;;;;;;;27.88;21.81;99770.44;4436719;32;33687;-86
2023/05/11 12:22:40;;;;;;;;;;;;;;;27.54;21.01;99772.19;4435535;32;33887;-87
2023/05/11 12:25:10;;;;;;;;;;;;;;;28.13;20.40;99768.88;4436612;32;34837;-84
2023/05/11 12:27:47;;;;;;;;;;;;;;;27.79;21.62;99761.78;4426369;32;33793;-85
2023/05/11 12:30:18;;;;;;;;;;;;;;;28.06;22.07;99763.78;4440254;32;33860;-85
2023/05/11 12:32:45;;;;;;;;;;;;;;;27.98;21.57;99764.00;4436648;32;34066;-84
2023/05/11 12:35:15;;;;;;;;;;;;;;;28.11;21.60;99767.19;4411455;32;32533;-87
2023/05/11 12:37:43;;;;;;;;;;;;;;;28.79;20.54;99761.66;4431729;32;33524;-86
2023/05/11 12:40:11;;;;;;;;;;;;;;;28.61;20.63;99746.25;4436326;32;33426;-85
2023/05/11 12:42:38;;;;;;;;;;;;;;;28.12;21.26;99713.00;4436673;32;34881;-86
2023/05/11 12:45:06;;;;;;;;;;;;;;;27.09;23.17;99752.91;4418331;32;33999;-85
2023/05/11 12:47:34;;;;;;;;;;;;;;;26.75;23.48;99743.88;4435067;32;33197;-84
2023/05/11 12:50:02;;;;;;;;;;;;;;;26.99;23.38;99744.25;4420353;32;34245;-83
2023/05/11 12:52:29;;;;;;;;;;;;;;;26.40;23.77;99737.53;4428534;32;32423;-83
2023/05/11 12:55:00;;;;;;;;;;;;;;;26.19;24.10;99736.22;4443513;32;34191;-82